sensor_id;sensor_type;location;lat;lon;timestamp;temperature;humidity
41953;DHT22;63613;28.200;112.870;2023-07-13T00:02:01;33.70;57.80
41953;DHT22;63613;28.200;112.870;2023-07-13T00:04:28;33.70;57.70
41953;DHT22;63613;28.200;112.870;2023-07-13T00:06:55;33.70;57.80
41953;DHT22;63613;28.200;112.870;2023-07-13T00:09:22;33.70;57.70
41953;DHT22;63613;28.200;112.870;2023-07-13T00:11:53;33.70;57.70
41953;DHT22;63613;28.200;112.870;2023-07-13T00:14:21;33.70;57.70
41953;DHT22;63613;28.200;112.870;2023-07-13T00:16:48;33.70;57.70
41953;DHT22;63613;28.200;112.870;2023-07-13T00:19:15;33.70;57.70
41953;DHT22;63613;28.200;112.870;2023-07-13T00:21:43;33.80;57.60
41953;DHT22;63613;28.200;112.870;2023-07-13T00:24:30;33.80;57.60
41953;DHT22;63613;28.200;112.870;2023-07-13T00:26:57;33.80;57.60
41953;DHT22;63613;28.200;112.870;2023-07-13T00:29:27;33.80;57.60
41953;DHT22;63613;28.200;112.870;2023-07-13T00:31:54;33.80;57.50
41953;DHT22;63613;28.200;112.870;2023-07-13T00:34:21;33.80;57.50
41953;DHT22;63613;28.200;112.870;2023-07-13T00:36:48;33.80;57.50
41953;DHT22;63613;28.200;112.870;2023-07-13T00:39:14;33.80;57.50
41953;DHT22;63613;28.200;112.870;2023-07-13T00:41:42;33.80;57.50
41953;DHT22;63613;28.200;112.870;2023-07-13T00:44:20;33.90;57.50
41953;DHT22;63613;28.200;112.870;2023-07-13T00:46:50;33.90;57.50
41953;DHT22;63613;28.200;112.870;2023-07-13T00:49:22;33.90;57.50
41953;DHT22;63613;28.200;112.870;2023-07-13T00:54:32;33.90;57.40
41953;DHT22;63613;28.200;112.870;2023-07-13T00:57:21;33.90;57.40
41953;DHT22;63613;28.200;112.870;2023-07-13T00:59:55;33.90;57.40
41953;DHT22;63613;28.200;112.870;2023-07-13T01:02:27;33.90;57.40
41953;DHT22;63613;28.200;112.870;2023-07-13T01:04:56;33.90;57.40
41953;DHT22;63613;28.200;112.870;2023-07-13T01:07:23;33.90;57.50
41953;DHT22;63613;28.200;112.870;2023-07-13T01:09:56;33.90;57.50
41953;DHT22;63613;28.200;112.870;2023-07-13T01:12:26;33.90;57.40
41953;DHT22;63613;28.200;112.870;2023-07-13T01:15:00;33.90;57.40
41953;DHT22;63613;28.200;112.870;2023-07-13T01:17:29;33.90;57.40
41953;DHT22;63613;28.200;112.870;2023-07-13T01:20:02;34.00;57.50
41953;DHT22;63613;28.200;112.870;2023-07-13T01:22:32;33.90;57.40
41953;DHT22;63613;28.200;112.870;2023-07-13T01:24:59;33.90;57.40
41953;DHT22;63613;28.200;112.870;2023-07-13T01:27:30;33.90;57.40
41953;DHT22;63613;28.200;112.870;2023-07-13T01:29:57;34.00;57.40
41953;DHT22;63613;28.200;112.870;2023-07-13T01:32:29;33.90;57.40
41953;DHT22;63613;28.200;112.870;2023-07-13T01:35:00;34.00;57.40
41953;DHT22;63613;28.200;112.870;2023-07-13T01:37:27;34.00;57.40
41953;DHT22;63613;28.200;112.870;2023-07-13T01:39:59;34.00;57.40
41953;DHT22;63613;28.200;112.870;2023-07-13T01:42:27;34.10;57.40
41953;DHT22;63613;28.200;112.870;2023-07-13T01:45:14;34.00;57.30
41953;DHT22;63613;28.200;112.870;2023-07-13T01:47:41;34.10;57.40
41953;DHT22;63613;28.200;112.870;2023-07-13T01:50:08;34.10;57.40
41953;DHT22;63613;28.200;112.870;2023-07-13T01:52:41;34.10;57.40
41953;DHT22;63613;28.200;112.870;2023-07-13T01:55:08;34.10;57.40
41953;DHT22;63613;28.200;112.870;2023-07-13T01:57:35;34.10;57.40
41953;DHT22;63613;28.200;112.870;2023-07-13T02:00:05;34.10;57.40
41953;DHT22;63613;28.200;112.870;2023-07-13T02:02:33;34.10;57.50
41953;DHT22;63613;28.200;112.870;2023-07-13T02:05:04;34.10;57.50
41953;DHT22;63613;28.200;112.870;2023-07-13T02:07:31;34.10;57.40
41953;DHT22;63613;28.200;112.870;2023-07-13T02:10:00;34.10;57.40
41953;DHT22;63613;28.200;112.870;2023-07-13T02:12:27;34.20;57.30
41953;DHT22;63613;28.200;112.870;2023-07-13T02:14:57;34.20;57.40
41953;DHT22;63613;28.200;112.870;2023-07-13T02:17:27;34.20;57.30
41953;DHT22;63613;28.200;112.870;2023-07-13T02:19:54;34.20;57.20
41953;DHT22;63613;28.200;112.870;2023-07-13T02:22:21;34.20;57.30
41953;DHT22;63613;28.200;112.870;2023-07-13T02:24:49;34.20;57.20
41953;DHT22;63613;28.200;112.870;2023-07-13T02:27:19;34.20;57.20
41953;DHT22;63613;28.200;112.870;2023-07-13T02:29:48;34.20;57.10
41953;DHT22;63613;28.200;112.870;2023-07-13T02:32:18;34.20;57.10
41953;DHT22;63613;28.200;112.870;2023-07-13T02:34:44;34.20;57.10
41953;DHT22;63613;28.200;112.870;2023-07-13T02:37:11;34.20;57.10
41953;DHT22;63613;28.200;112.870;2023-07-13T02:39:38;34.20;57.00
41953;DHT22;63613;28.200;112.870;2023-07-13T02:42:05;34.30;57.00
41953;DHT22;63613;28.200;112.870;2023-07-13T02:44:32;34.30;57.00
41953;DHT22;63613;28.200;112.870;2023-07-13T02:46:59;34.30;57.00
41953;DHT22;63613;28.200;112.870;2023-07-13T02:49:26;34.30;56.90
41953;DHT22;63613;28.200;112.870;2023-07-13T02:51:53;34.30;56.90
41953;DHT22;63613;28.200;112.870;2023-07-13T02:54:20;34.40;56.80
41953;DHT22;63613;28.200;112.870;2023-07-13T02:56:47;34.40;56.80
41953;DHT22;63613;28.200;112.870;2023-07-13T02:59:14;34.40;56.80
41953;DHT22;63613;28.200;112.870;2023-07-13T03:01:41;34.40;56.70
41953;DHT22;63613;28.200;112.870;2023-07-13T03:04:08;34.40;56.70
41953;DHT22;63613;28.200;112.870;2023-07-13T03:06:35;34.40;56.60
41953;DHT22;63613;28.200;112.870;2023-07-13T03:09:02;34.40;56.50
41953;DHT22;63613;28.200;112.870;2023-07-13T03:11:31;34.50;56.50
41953;DHT22;63613;28.200;112.870;2023-07-13T03:14:01;34.50;56.40
41953;DHT22;63613;28.200;112.870;2023-07-13T03:16:28;34.50;56.30
41953;DHT22;63613;28.200;112.870;2023-07-13T03:18:55;34.50;56.30
41953;DHT22;63613;28.200;112.870;2023-07-13T03:21:22;34.50;56.30
41953;DHT22;63613;28.200;112.870;2023-07-13T03:23:48;34.50;56.20
41953;DHT22;63613;28.200;112.870;2023-07-13T03:26:18;34.50;56.20
41953;DHT22;63613;28.200;112.870;2023-07-13T03:28:47;34.50;56.10
41953;DHT22;63613;28.200;112.870;2023-07-13T03:31:17;34.50;56.10
41953;DHT22;63613;28.200;112.870;2023-07-13T03:34:04;34.60;56.10
41953;DHT22;63613;28.200;112.870;2023-07-13T03:36:37;34.60;56.00
41953;DHT22;63613;28.200;112.870;2023-07-13T03:39:06;34.60;56.00
41953;DHT22;63613;28.200;112.870;2023-07-13T03:41:35;34.60;56.00
41953;DHT22;63613;28.200;112.870;2023-07-13T03:44:02;34.60;56.00
41953;DHT22;63613;28.200;112.870;2023-07-13T03:46:50;34.60;55.90
41953;DHT22;63613;28.200;112.870;2023-07-13T03:49:17;34.60;55.90
41953;DHT22;63613;28.200;112.870;2023-07-13T03:51:44;34.60;56.00
41953;DHT22;63613;28.200;112.870;2023-07-13T03:54:14;34.60;56.00
41953;DHT22;63613;28.200;112.870;2023-07-13T03:56:41;34.60;55.90
41953;DHT22;63613;28.200;112.870;2023-07-13T03:59:10;34.60;56.00
41953;DHT22;63613;28.200;112.870;2023-07-13T04:01:38;34.60;55.90
41953;DHT22;63613;28.200;112.870;2023-07-13T04:04:05;34.70;55.90
41953;DHT22;63613;28.200;112.870;2023-07-13T04:06:32;34.70;55.80
41953;DHT22;63613;28.200;112.870;2023-07-13T04:09:03;34.70;55.90
41953;DHT22;63613;28.200;112.870;2023-07-13T04:11:34;34.70;55.90
41953;DHT22;63613;28.200;112.870;2023-07-13T04:14:04;34.70;55.90
41953;DHT22;63613;28.200;112.870;2023-07-13T04:16:31;34.70;55.80
41953;DHT22;63613;28.200;112.870;2023-07-13T04:18:58;34.70;55.70
41953;DHT22;63613;28.200;112.870;2023-07-13T04:21:29;34.70;55.60
41953;DHT22;63613;28.200;112.870;2023-07-13T04:23:57;34.80;55.70
41953;DHT22;63613;28.200;112.870;2023-07-13T04:26:24;34.70;55.70
41953;DHT22;63613;28.200;112.870;2023-07-13T04:28:55;34.80;55.60
41953;DHT22;63613;28.200;112.870;2023-07-13T04:31:22;34.80;55.60
41953;DHT22;63613;28.200;112.870;2023-07-13T04:33:49;34.80;55.60
41953;DHT22;63613;28.200;112.870;2023-07-13T04:36:17;34.80;55.60
41953;DHT22;63613;28.200;112.870;2023-07-13T04:38:44;34.80;55.60
41953;DHT22;63613;28.200;112.870;2023-07-13T04:41:12;34.90;55.60
41953;DHT22;63613;28.200;112.870;2023-07-13T04:43:42;34.90;55.50
41953;DHT22;63613;28.200;112.870;2023-07-13T04:46:14;34.90;55.40
41953;DHT22;63613;28.200;112.870;2023-07-13T04:48:41;34.90;55.20
41953;DHT22;63613;28.200;112.870;2023-07-13T04:51:08;35.00;55.00
41953;DHT22;63613;28.200;112.870;2023-07-13T04:53:36;35.00;55.00
41953;DHT22;63613;28.200;112.870;2023-07-13T04:56:03;35.00;55.10
41953;DHT22;63613;28.200;112.870;2023-07-13T04:58:33;35.00;55.10
41953;DHT22;63613;28.200;112.870;2023-07-13T05:01:25;35.00;55.10
41953;DHT22;63613;28.200;112.870;2023-07-13T05:03:51;35.00;55.10
41953;DHT22;63613;28.200;112.870;2023-07-13T05:06:18;35.00;55.00
41953;DHT22;63613;28.200;112.870;2023-07-13T05:08:46;35.00;55.10
41953;DHT22;63613;28.200;112.870;2023-07-13T05:11:13;35.10;55.00
41953;DHT22;63613;28.200;112.870;2023-07-13T05:13:40;35.10;54.90
41953;DHT22;63613;28.200;112.870;2023-07-13T05:16:09;35.10;54.90
41953;DHT22;63613;28.200;112.870;2023-07-13T05:18:36;35.20;54.80
41953;DHT22;63613;28.200;112.870;2023-07-13T05:21:06;35.20;54.70
41953;DHT22;63613;28.200;112.870;2023-07-13T05:23:36;35.20;54.60
41953;DHT22;63613;28.200;112.870;2023-07-13T05:26:03;35.20;54.50
41953;DHT22;63613;28.200;112.870;2023-07-13T05:28:31;35.20;54.50
41953;DHT22;63613;28.200;112.870;2023-07-13T05:30:59;35.20;54.50
41953;DHT22;63613;28.200;112.870;2023-07-13T05:33:37;35.20;54.50
41953;DHT22;63613;28.200;112.870;2023-07-13T05:36:24;35.20;54.20
41953;DHT22;63613;28.200;112.870;2023-07-13T05:38:51;35.30;54.10
41953;DHT22;63613;28.200;112.870;2023-07-13T05:41:18;35.30;54.20
41953;DHT22;63613;28.200;112.870;2023-07-13T05:43:45;35.30;54.20
41953;DHT22;63613;28.200;112.870;2023-07-13T05:46:13;35.40;54.20
41953;DHT22;63613;28.200;112.870;2023-07-13T05:48:40;35.30;54.20
41953;DHT22;63613;28.200;112.870;2023-07-13T05:51:09;35.40;54.10
41953;DHT22;63613;28.200;112.870;2023-07-13T05:53:36;35.40;54.10
41953;DHT22;63613;28.200;112.870;2023-07-13T05:56:03;35.40;54.10
41953;DHT22;63613;28.200;112.870;2023-07-13T05:58:30;35.40;54.20
41953;DHT22;63613;28.200;112.870;2023-07-13T06:01:05;35.40;54.20
41953;DHT22;63613;28.200;112.870;2023-07-13T06:03:38;35.40;54.30
41953;DHT22;63613;28.200;112.870;2023-07-13T06:06:06;35.40;54.20
41953;DHT22;63613;28.200;112.870;2023-07-13T06:08:37;35.40;54.00
41953;DHT22;63613;28.200;112.870;2023-07-13T06:11:09;35.50;54.00
41953;DHT22;63613;28.200;112.870;2023-07-13T06:13:39;35.40;54.00
41953;DHT22;63613;28.200;112.870;2023-07-13T06:16:06;35.50;54.00
41953;DHT22;63613;28.200;112.870;2023-07-13T06:18:36;35.50;54.00
41953;DHT22;63613;28.200;112.870;2023-07-13T06:21:18;35.50;54.00
41953;DHT22;63613;28.200;112.870;2023-07-13T06:23:47;35.50;54.00
41953;DHT22;63613;28.200;112.870;2023-07-13T06:26:18;35.50;54.00
41953;DHT22;63613;28.200;112.870;2023-07-13T06:28:46;35.50;53.80
41953;DHT22;63613;28.200;112.870;2023-07-13T06:31:16;35.40;53.90
41953;DHT22;63613;28.200;112.870;2023-07-13T06:33:44;35.40;54.00
41953;DHT22;63613;28.200;112.870;2023-07-13T06:36:15;35.40;54.10
41953;DHT22;63613;28.200;112.870;2023-07-13T06:38:42;35.40;54.00
41953;DHT22;63613;28.200;112.870;2023-07-13T06:41:09;35.50;54.00
41953;DHT22;63613;28.200;112.870;2023-07-13T06:43:38;35.50;54.00
41953;DHT22;63613;28.200;112.870;2023-07-13T06:46:08;35.50;54.00
41953;DHT22;63613;28.200;112.870;2023-07-13T06:48:37;35.50;54.00
41953;DHT22;63613;28.200;112.870;2023-07-13T06:51:05;35.50;53.90
41953;DHT22;63613;28.200;112.870;2023-07-13T06:53:35;35.50;54.10
41953;DHT22;63613;28.200;112.870;2023-07-13T06:56:04;35.50;54.00
41953;DHT22;63613;28.200;112.870;2023-07-13T06:58:34;35.60;53.90
41953;DHT22;63613;28.200;112.870;2023-07-13T07:01:01;35.50;53.90
41953;DHT22;63613;28.200;112.870;2023-07-13T07:03:34;35.50;54.00
41953;DHT22;63613;28.200;112.870;2023-07-13T07:08:41;35.50;53.80
41953;DHT22;63613;28.200;112.870;2023-07-13T07:11:11;35.50;53.90
41953;DHT22;63613;28.200;112.870;2023-07-13T07:13:38;35.50;53.90
41953;DHT22;63613;28.200;112.870;2023-07-13T07:16:08;35.50;53.90
41953;DHT22;63613;28.200;112.870;2023-07-13T07:18:36;35.50;53.80
41953;DHT22;63613;28.200;112.870;2023-07-13T07:21:04;35.60;53.80
41953;DHT22;63613;28.200;112.870;2023-07-13T07:23:32;35.60;53.70
41953;DHT22;63613;28.200;112.870;2023-07-13T07:26:02;35.60;53.70
41953;DHT22;63613;28.200;112.870;2023-07-13T07:28:33;35.60;53.70
41953;DHT22;63613;28.200;112.870;2023-07-13T07:31:02;35.50;53.80
41953;DHT22;63613;28.200;112.870;2023-07-13T07:33:29;35.60;53.80
41953;DHT22;63613;28.200;112.870;2023-07-13T07:35:56;35.60;53.80
41953;DHT22;63613;28.200;112.870;2023-07-13T07:38:23;35.50;53.90
41953;DHT22;63613;28.200;112.870;2023-07-13T07:41:10;35.60;53.80
41953;DHT22;63613;28.200;112.870;2023-07-13T07:43:37;35.60;53.80
41953;DHT22;63613;28.200;112.870;2023-07-13T07:46:04;35.60;53.80
41953;DHT22;63613;28.200;112.870;2023-07-13T07:48:35;35.60;53.90
41953;DHT22;63613;28.200;112.870;2023-07-13T07:51:03;35.60;53.90
41953;DHT22;63613;28.200;112.870;2023-07-13T07:53:30;35.60;54.00
41953;DHT22;63613;28.200;112.870;2023-07-13T07:55:57;35.60;54.10
41953;DHT22;63613;28.200;112.870;2023-07-13T07:58:27;35.50;54.10
41953;DHT22;63613;28.200;112.870;2023-07-13T08:01:01;35.50;54.00
41953;DHT22;63613;28.200;112.870;2023-07-13T08:03:31;35.50;54.00
41953;DHT22;63613;28.200;112.870;2023-07-13T08:05:58;35.60;54.00
41953;DHT22;63613;28.200;112.870;2023-07-13T08:08:27;35.60;54.00
41953;DHT22;63613;28.200;112.870;2023-07-13T08:10:54;35.50;54.00
41953;DHT22;63613;28.200;112.870;2023-07-13T08:13:22;35.50;54.10
41953;DHT22;63613;28.200;112.870;2023-07-13T08:15:53;35.50;54.20
41953;DHT22;63613;28.200;112.870;2023-07-13T08:18:40;35.50;54.20
41953;DHT22;63613;28.200;112.870;2023-07-13T08:21:08;35.50;54.20
41953;DHT22;63613;28.200;112.870;2023-07-13T08:23:36;35.50;54.30
41953;DHT22;63613;28.200;112.870;2023-07-13T08:26:03;35.50;54.30
41953;DHT22;63613;28.200;112.870;2023-07-13T08:28:33;35.40;54.30
41953;DHT22;63613;28.200;112.870;2023-07-13T08:31:02;35.50;54.30
41953;DHT22;63613;28.200;112.870;2023-07-13T08:33:31;35.50;54.40
41953;DHT22;63613;28.200;112.870;2023-07-13T08:35:58;35.50;54.40
41953;DHT22;63613;28.200;112.870;2023-07-13T08:38:27;35.50;54.50
41953;DHT22;63613;28.200;112.870;2023-07-13T08:40:57;35.40;54.40
41953;DHT22;63613;28.200;112.870;2023-07-13T08:43:35;35.40;54.50
41953;DHT22;63613;28.200;112.870;2023-07-13T08:48:53;35.40;54.50
41953;DHT22;63613;28.200;112.870;2023-07-13T08:51:53;35.40;54.50
41953;DHT22;63613;28.200;112.870;2023-07-13T08:54:41;35.40;54.50
41953;DHT22;63613;28.200;112.870;2023-07-13T08:57:21;35.40;54.50
41953;DHT22;63613;28.200;112.870;2023-07-13T08:59:54;35.40;54.60
41953;DHT22;63613;28.200;112.870;2023-07-13T09:05:25;35.30;54.60
41953;DHT22;63613;28.200;112.870;2023-07-13T09:13:52;35.30;54.80
41953;DHT22;63613;28.200;112.870;2023-07-13T09:16:23;35.30;54.80
41953;DHT22;63613;28.200;112.870;2023-07-13T09:18:52;35.30;54.80
41953;DHT22;63613;28.200;112.870;2023-07-13T09:21:41;35.30;54.70
41953;DHT22;63613;28.200;112.870;2023-07-13T09:26:55;35.20;54.80
41953;DHT22;63613;28.200;112.870;2023-07-13T09:29:33;35.20;54.80
41953;DHT22;63613;28.200;112.870;2023-07-13T09:32:25;35.20;54.90
41953;DHT22;63613;28.200;112.870;2023-07-13T09:34:54;35.20;54.90
41953;DHT22;63613;28.200;112.870;2023-07-13T09:37:28;35.20;54.90
41953;DHT22;63613;28.200;112.870;2023-07-13T09:39:56;35.20;55.00
41953;DHT22;63613;28.200;112.870;2023-07-13T09:42:27;35.20;55.10
41953;DHT22;63613;28.200;112.870;2023-07-13T09:44:58;35.20;55.10
41953;DHT22;63613;28.200;112.870;2023-07-13T09:47:26;35.20;55.10
41953;DHT22;63613;28.200;112.870;2023-07-13T09:50:00;35.10;55.10
41953;DHT22;63613;28.200;112.870;2023-07-13T09:52:27;35.20;55.20
41953;DHT22;63613;28.200;112.870;2023-07-13T09:54:56;35.20;55.20
41953;DHT22;63613;28.200;112.870;2023-07-13T09:57:27;35.10;55.20
41953;DHT22;63613;28.200;112.870;2023-07-13T09:59:55;35.20;55.20
41953;DHT22;63613;28.200;112.870;2023-07-13T10:02:34;35.10;55.20
41953;DHT22;63613;28.200;112.870;2023-07-13T10:05:11;35.10;55.30
41953;DHT22;63613;28.200;112.870;2023-07-13T10:07:42;35.10;55.30
41953;DHT22;63613;28.200;112.870;2023-07-13T10:10:21;35.10;55.30
41953;DHT22;63613;28.200;112.870;2023-07-13T10:12:49;35.10;55.40
41953;DHT22;63613;28.200;112.870;2023-07-13T10:15:21;35.10;55.40
41953;DHT22;63613;28.200;112.870;2023-07-13T10:17:52;35.00;55.40
41953;DHT22;63613;28.200;112.870;2023-07-13T10:20:21;35.00;55.50
41953;DHT22;63613;28.200;112.870;2023-07-13T10:23:04;35.10;55.50
41953;DHT22;63613;28.200;112.870;2023-07-13T10:25:37;35.10;55.60
41953;DHT22;63613;28.200;112.870;2023-07-13T10:28:36;35.00;55.60
41953;DHT22;63613;28.200;112.870;2023-07-13T10:31:01;35.00;55.70
41953;DHT22;63613;28.200;112.870;2023-07-13T10:33:29;35.00;55.70
41953;DHT22;63613;28.200;112.870;2023-07-13T10:38:36;35.00;55.80
41953;DHT22;63613;28.200;112.870;2023-07-13T10:41:09;34.90;55.80
41953;DHT22;63613;28.200;112.870;2023-07-13T10:43:47;34.90;55.90
41953;DHT22;63613;28.200;112.870;2023-07-13T10:46:19;34.90;55.90
41953;DHT22;63613;28.200;112.870;2023-07-13T10:48:51;34.90;55.90
41953;DHT22;63613;28.200;112.870;2023-07-13T10:51:20;34.90;56.00
41953;DHT22;63613;28.200;112.870;2023-07-13T10:53:48;34.90;56.00
41953;DHT22;63613;28.200;112.870;2023-07-13T10:56:34;34.90;56.00
41953;DHT22;63613;28.200;112.870;2023-07-13T11:01:52;34.90;56.10
41953;DHT22;63613;28.200;112.870;2023-07-13T11:04:21;34.90;56.20
41953;DHT22;63613;28.200;112.870;2023-07-13T11:06:56;34.80;56.20
41953;DHT22;63613;28.200;112.870;2023-07-13T11:09:41;34.80;56.30
41953;DHT22;63613;28.200;112.870;2023-07-13T11:17:50;34.70;56.50
41953;DHT22;63613;28.200;112.870;2023-07-13T11:25:28;34.70;56.70
41953;DHT22;63613;28.200;112.870;2023-07-13T11:28:21;34.70;56.70
41953;DHT22;63613;28.200;112.870;2023-07-13T11:33:25;34.70;56.80
41953;DHT22;63613;28.200;112.870;2023-07-13T11:38:41;34.70;56.90
41953;DHT22;63613;28.200;112.870;2023-07-13T11:46:36;34.70;57.00
41953;DHT22;63613;28.200;112.870;2023-07-13T11:49:05;34.60;57.10
41953;DHT22;63613;28.200;112.870;2023-07-13T11:51:36;34.60;57.10
41953;DHT22;63613;28.200;112.870;2023-07-13T11:54:20;34.60;57.20
41953;DHT22;63613;28.200;112.870;2023-07-13T11:56:49;34.60;57.20
41953;DHT22;63613;28.200;112.870;2023-07-13T11:59:16;34.60;57.20
41953;DHT22;63613;28.200;112.870;2023-07-13T12:01:46;34.60;57.20
41953;DHT22;63613;28.200;112.870;2023-07-13T12:04:44;34.60;57.20
41953;DHT22;63613;28.200;112.870;2023-07-13T12:07:19;34.60;57.30
41953;DHT22;63613;28.200;112.870;2023-07-13T12:09:46;34.60;57.30
41953;DHT22;63613;28.200;112.870;2023-07-13T12:12:15;34.60;57.40
41953;DHT22;63613;28.200;112.870;2023-07-13T12:14:44;34.60;57.40
41953;DHT22;63613;28.200;112.870;2023-07-13T12:17:31;34.60;57.40
41953;DHT22;63613;28.200;112.870;2023-07-13T12:20:00;34.60;57.40
41953;DHT22;63613;28.200;112.870;2023-07-13T12:22:28;34.60;57.40
41953;DHT22;63613;28.200;112.870;2023-07-13T12:25:15;34.50;57.40
41953;DHT22;63613;28.200;112.870;2023-07-13T12:27:53;34.50;57.40
41953;DHT22;63613;28.200;112.870;2023-07-13T12:30:29;34.50;57.40
41953;DHT22;63613;28.200;112.870;2023-07-13T12:33:07;34.50;57.50
41953;DHT22;63613;28.200;112.870;2023-07-13T12:35:41;34.50;57.50
41953;DHT22;63613;28.200;112.870;2023-07-13T12:38:11;34.50;57.50
41953;DHT22;63613;28.200;112.870;2023-07-13T12:40:38;34.50;57.60
41953;DHT22;63613;28.200;112.870;2023-07-13T12:43:12;34.50;57.50
41953;DHT22;63613;28.200;112.870;2023-07-13T12:48:22;34.50;57.60
41953;DHT22;63613;28.200;112.870;2023-07-13T12:50:54;34.50;57.60
41953;DHT22;63613;28.200;112.870;2023-07-13T12:53:28;34.50;57.60
41953;DHT22;63613;28.200;112.870;2023-07-13T12:56:03;34.50;57.60
41953;DHT22;63613;28.200;112.870;2023-07-13T12:58:39;34.50;57.60
41953;DHT22;63613;28.200;112.870;2023-07-13T13:01:11;34.50;57.60
41953;DHT22;63613;28.200;112.870;2023-07-13T13:03:45;34.50;57.60
41953;DHT22;63613;28.200;112.870;2023-07-13T13:08:52;34.50;57.60
41953;DHT22;63613;28.200;112.870;2023-07-13T13:11:21;34.50;57.60
41953;DHT22;63613;28.200;112.870;2023-07-13T13:13:49;34.50;57.60
41953;DHT22;63613;28.200;112.870;2023-07-13T13:18:56;34.50;57.60
41953;DHT22;63613;28.200;112.870;2023-07-13T13:21:28;34.50;57.60
41953;DHT22;63613;28.200;112.870;2023-07-13T13:23:55;34.50;57.60
41953;DHT22;63613;28.200;112.870;2023-07-13T13:26:22;34.40;57.60
41953;DHT22;63613;28.200;112.870;2023-07-13T13:28:54;34.40;57.60
41953;DHT22;63613;28.200;112.870;2023-07-13T13:31:22;34.40;57.50
41953;DHT22;63613;28.200;112.870;2023-07-13T13:33:49;34.50;57.60
41953;DHT22;63613;28.200;112.870;2023-07-13T13:36:18;34.40;57.50
41953;DHT22;63613;28.200;112.870;2023-07-13T13:38:47;34.40;57.50
41953;DHT22;63613;28.200;112.870;2023-07-13T13:41:15;34.40;57.50
41953;DHT22;63613;28.200;112.870;2023-07-13T13:43:46;34.40;57.60
41953;DHT22;63613;28.200;112.870;2023-07-13T13:46:20;34.40;57.60
41953;DHT22;63613;28.200;112.870;2023-07-13T13:48:56;34.40;57.50
41953;DHT22;63613;28.200;112.870;2023-07-13T13:51:24;34.40;57.50
41953;DHT22;63613;28.200;112.870;2023-07-13T13:54:14;34.40;57.50
41953;DHT22;63613;28.200;112.870;2023-07-13T13:56:47;34.40;57.50
41953;DHT22;63613;28.200;112.870;2023-07-13T13:59:17;34.40;57.50
41953;DHT22;63613;28.200;112.870;2023-07-13T14:01:47;34.40;57.50
41953;DHT22;63613;28.200;112.870;2023-07-13T14:04:19;34.40;57.60
41953;DHT22;63613;28.200;112.870;2023-07-13T14:06:47;34.40;57.60
41953;DHT22;63613;28.200;112.870;2023-07-13T14:09:17;34.40;57.60
41953;DHT22;63613;28.200;112.870;2023-07-13T14:11:45;34.40;57.60
41953;DHT22;63613;28.200;112.870;2023-07-13T14:14:19;34.40;57.60
41953;DHT22;63613;28.200;112.870;2023-07-13T14:16:49;34.40;57.60
41953;DHT22;63613;28.200;112.870;2023-07-13T14:19:37;34.40;57.60
41953;DHT22;63613;28.200;112.870;2023-07-13T14:22:04;34.40;57.60
41953;DHT22;63613;28.200;112.870;2023-07-13T14:24:31;34.40;57.60
41953;DHT22;63613;28.200;112.870;2023-07-13T14:27:00;34.40;57.60
41953;DHT22;63613;28.200;112.870;2023-07-13T14:29:27;34.30;57.60
41953;DHT22;63613;28.200;112.870;2023-07-13T14:31:58;34.30;57.60
41953;DHT22;63613;28.200;112.870;2023-07-13T14:34:25;34.30;57.60
41953;DHT22;63613;28.200;112.870;2023-07-13T14:36:52;34.40;57.60
41953;DHT22;63613;28.200;112.870;2023-07-13T14:39:26;34.40;57.60
41953;DHT22;63613;28.200;112.870;2023-07-13T14:41:56;34.30;57.60
41953;DHT22;63613;28.200;112.870;2023-07-13T14:44:30;34.40;57.60
41953;DHT22;63613;28.200;112.870;2023-07-13T14:47:00;34.30;57.60
41953;DHT22;63613;28.200;112.870;2023-07-13T14:49:38;34.30;57.70
41953;DHT22;63613;28.200;112.870;2023-07-13T14:52:23;34.30;57.70
41953;DHT22;63613;28.200;112.870;2023-07-13T14:54:54;34.30;57.70
41953;DHT22;63613;28.200;112.870;2023-07-13T14:57:42;34.30;57.70
41953;DHT22;63613;28.200;112.870;2023-07-13T15:00:17;34.30;57.70
41953;DHT22;63613;28.200;112.870;2023-07-13T15:02:57;34.30;57.70
41953;DHT22;63613;28.200;112.870;2023-07-13T15:05:28;34.30;57.70
41953;DHT22;63613;28.200;112.870;2023-07-13T15:08:01;34.30;57.70
41953;DHT22;63613;28.200;112.870;2023-07-13T15:10:33;34.30;57.70
41953;DHT22;63613;28.200;112.870;2023-07-13T15:13:21;34.30;57.70
41953;DHT22;63613;28.200;112.870;2023-07-13T15:15:51;34.30;57.70
41953;DHT22;63613;28.200;112.870;2023-07-13T15:18:23;34.30;57.70
41953;DHT22;63613;28.200;112.870;2023-07-13T15:20:57;34.30;57.70
41953;DHT22;63613;28.200;112.870;2023-07-13T15:23:26;34.30;57.70
41953;DHT22;63613;28.200;112.870;2023-07-13T15:25:53;34.20;57.70
41953;DHT22;63613;28.200;112.870;2023-07-13T15:28:20;34.30;57.80
41953;DHT22;63613;28.200;112.870;2023-07-13T15:30:48;34.30;57.80
41953;DHT22;63613;28.200;112.870;2023-07-13T15:33:27;34.20;57.80
41953;DHT22;63613;28.200;112.870;2023-07-13T15:35:56;34.30;57.80
41953;DHT22;63613;28.200;112.870;2023-07-13T15:38:27;34.20;57.80
41953;DHT22;63613;28.200;112.870;2023-07-13T15:40:55;34.30;57.80
41953;DHT22;63613;28.200;112.870;2023-07-13T15:43:25;34.20;57.90
41953;DHT22;63613;28.200;112.870;2023-07-13T15:45:54;34.30;57.90
41953;DHT22;63613;28.200;112.870;2023-07-13T15:48:23;34.20;57.90
41953;DHT22;63613;28.200;112.870;2023-07-13T15:50:53;34.20;57.90
41953;DHT22;63613;28.200;112.870;2023-07-13T15:53:25;34.20;57.90
41953;DHT22;63613;28.200;112.870;2023-07-13T15:55:54;34.20;57.90
41953;DHT22;63613;28.200;112.870;2023-07-13T15:58:22;34.20;57.80
41953;DHT22;63613;28.200;112.870;2023-07-13T16:00:49;34.30;57.90
41953;DHT22;63613;28.200;112.870;2023-07-13T16:03:20;34.20;57.90
41953;DHT22;63613;28.200;112.870;2023-07-13T16:05:50;34.20;57.90
41953;DHT22;63613;28.200;112.870;2023-07-13T16:08:27;34.20;57.90
41953;DHT22;63613;28.200;112.870;2023-07-13T16:10:56;34.20;58.00
41953;DHT22;63613;28.200;112.870;2023-07-13T16:13:23;34.20;58.00
41953;DHT22;63613;28.200;112.870;2023-07-13T16:16:13;34.20;58.00
41953;DHT22;63613;28.200;112.870;2023-07-13T16:18:41;34.20;58.10
41953;DHT22;63613;28.200;112.870;2023-07-13T16:21:12;34.20;58.10